sensor_id;sensor_type;location;lat;lon;timestamp;temperature;humidity
2327;DHT22;1174;51.588;7.328;2023-01-26T00:02:31;0.60;99.90
2327;DHT22;1174;51.588;7.328;2023-01-26T00:05:23;0.60;99.90
2327;DHT22;1174;51.588;7.328;2023-01-26T00:08:06;0.80;99.90
2327;DHT22;1174;51.588;7.328;2023-01-26T00:11:02;0.80;99.90
2327;DHT22;1174;51.588;7.328;2023-01-26T00:13:40;0.80;99.90
2327;DHT22;1174;51.588;7.328;2023-01-26T00:16:35;0.90;99.90
2327;DHT22;1174;51.588;7.328;2023-01-26T00:19:11;0.90;99.90
2327;DHT22;1174;51.588;7.328;2023-01-26T00:21:58;0.90;99.90
2327;DHT22;1174;51.588;7.328;2023-01-26T00:24:28;0.80;99.90
2327;DHT22;1174;51.588;7.328;2023-01-26T00:27:02;0.60;99.90
2327;DHT22;1174;51.588;7.328;2023-01-26T00:29:57;0.60;99.90
2327;DHT22;1174;51.588;7.328;2023-01-26T00:34:44;0.70;99.90
2327;DHT22;1174;51.588;7.328;2023-01-26T00:47:02;0.80;99.90
2327;DHT22;1174;51.588;7.328;2023-01-26T01:10:01;0.60;99.90
2327;DHT22;1174;51.588;7.328;2023-01-26T01:26:58;0.90;99.90
2327;DHT22;1174;51.588;7.328;2023-01-26T01:41:08;1.00;99.90
2327;DHT22;1174;51.588;7.328;2023-01-26T01:44:22;1.10;99.90
2327;DHT22;1174;51.588;7.328;2023-01-26T01:47:20;1.10;99.90
2327;DHT22;1174;51.588;7.328;2023-01-26T01:49:56;0.90;99.90
2327;DHT22;1174;51.588;7.328;2023-01-26T01:52:35;1.00;99.90
2327;DHT22;1174;51.588;7.328;2023-01-26T01:58:34;1.00;99.90
2327;DHT22;1174;51.588;7.328;2023-01-26T02:01:52;1.20;99.90
2327;DHT22;1174;51.588;7.328;2023-01-26T02:04:50;1.10;99.90
2327;DHT22;1174;51.588;7.328;2023-01-26T02:11:15;1.10;99.90
2327;DHT22;1174;51.588;7.328;2023-01-26T02:16:59;1.10;99.90
2327;DHT22;1174;51.588;7.328;2023-01-26T02:47:11;1.20;99.90
2327;DHT22;1174;51.588;7.328;2023-01-26T02:49:22;1.10;99.90
2327;DHT22;1174;51.588;7.328;2023-01-26T02:52:31;1.10;99.90
2327;DHT22;1174;51.588;7.328;2023-01-26T02:55:02;1.10;99.90
2327;DHT22;1174;51.588;7.328;2023-01-26T02:58:36;0.90;99.90
2327;DHT22;1174;51.588;7.328;2023-01-26T03:01:18;0.70;99.90
2327;DHT22;1174;51.588;7.328;2023-01-26T03:04:16;0.70;99.90
2327;DHT22;1174;51.588;7.328;2023-01-26T03:07:05;0.70;99.90
2327;DHT22;1174;51.588;7.328;2023-01-26T03:10:16;0.80;99.90
2327;DHT22;1174;51.588;7.328;2023-01-26T03:13:13;0.80;99.90
2327;DHT22;1174;51.588;7.328;2023-01-26T03:19:41;0.90;99.90
2327;DHT22;1174;51.588;7.328;2023-01-26T03:22:37;1.00;99.90
2327;DHT22;1174;51.588;7.328;2023-01-26T03:32:32;1.10;99.90
2327;DHT22;1174;51.588;7.328;2023-01-26T03:38:06;1.00;99.90
2327;DHT22;1174;51.588;7.328;2023-01-26T03:39:12;1.10;99.90
2327;DHT22;1174;51.588;7.328;2023-01-26T04:15:49;0.90;99.90
2327;DHT22;1174;51.588;7.328;2023-01-26T04:28:23;1.10;99.90
2327;DHT22;1174;51.588;7.328;2023-01-26T04:34:32;0.80;99.90
2327;DHT22;1174;51.588;7.328;2023-01-26T04:37:43;1.00;99.90
2327;DHT22;1174;51.588;7.328;2023-01-26T04:40:58;0.80;99.90
2327;DHT22;1174;51.588;7.328;2023-01-26T04:44:06;0.90;99.90
2327;DHT22;1174;51.588;7.328;2023-01-26T04:50:50;1.00;99.90
2327;DHT22;1174;51.588;7.328;2023-01-26T04:53:46;1.10;99.90
2327;DHT22;1174;51.588;7.328;2023-01-26T05:00:49;1.00;99.90
2327;DHT22;1174;51.588;7.328;2023-01-26T05:13:27;1.10;99.90
2327;DHT22;1174;51.588;7.328;2023-01-26T05:16:15;1.00;99.90
2327;DHT22;1174;51.588;7.328;2023-01-26T05:19:05;1.00;99.90
2327;DHT22;1174;51.588;7.328;2023-01-26T05:25:26;1.10;99.90
2327;DHT22;1174;51.588;7.328;2023-01-26T05:28:44;1.10;99.90
2327;DHT22;1174;51.588;7.328;2023-01-26T06:01:25;1.10;99.90
2327;DHT22;1174;51.588;7.328;2023-01-26T06:16:06;1.20;99.90
2327;DHT22;1174;51.588;7.328;2023-01-26T06:36:45;1.40;99.90
2327;DHT22;1174;51.588;7.328;2023-01-26T06:40:37;1.50;99.90
2327;DHT22;1174;51.588;7.328;2023-01-26T06:43:12;1.40;99.90
2327;DHT22;1174;51.588;7.328;2023-01-26T06:46:40;1.40;99.90
2327;DHT22;1174;51.588;7.328;2023-01-26T06:52:35;1.30;99.90
2327;DHT22;1174;51.588;7.328;2023-01-26T06:55:31;1.30;99.90
2327;DHT22;1174;51.588;7.328;2023-01-26T06:58:32;1.40;99.90
2327;DHT22;1174;51.588;7.328;2023-01-26T07:01:06;1.40;99.90
2327;DHT22;1174;51.588;7.328;2023-01-26T07:04:00;1.40;99.90
2327;DHT22;1174;51.588;7.328;2023-01-26T07:14:07;1.40;99.90
2327;DHT22;1174;51.588;7.328;2023-01-26T07:23:08;1.50;99.90
2327;DHT22;1174;51.588;7.328;2023-01-26T07:25:42;1.50;99.90
2327;DHT22;1174;51.588;7.328;2023-01-26T07:28:17;1.50;99.90
2327;DHT22;1174;51.588;7.328;2023-01-26T07:34:59;1.50;99.90
2327;DHT22;1174;51.588;7.328;2023-01-26T07:40:39;1.50;99.90
2327;DHT22;1174;51.588;7.328;2023-01-26T07:44:07;1.40;99.90
2327;DHT22;1174;51.588;7.328;2023-01-26T07:54:19;1.40;99.90
2327;DHT22;1174;51.588;7.328;2023-01-26T08:13:52;1.50;99.90
2327;DHT22;1174;51.588;7.328;2023-01-26T08:20:23;1.40;99.90
2327;DHT22;1174;51.588;7.328;2023-01-26T08:29:32;1.30;99.90
2327;DHT22;1174;51.588;7.328;2023-01-26T08:36:12;1.50;99.90
2327;DHT22;1174;51.588;7.328;2023-01-26T08:49:17;1.70;99.90
2327;DHT22;1174;51.588;7.328;2023-01-26T08:51:58;1.70;99.90
2327;DHT22;1174;51.588;7.328;2023-01-26T08:54:45;1.50;99.90
2327;DHT22;1174;51.588;7.328;2023-01-26T08:58:13;1.70;99.90
2327;DHT22;1174;51.588;7.328;2023-01-26T09:11:24;1.70;99.90
2327;DHT22;1174;51.588;7.328;2023-01-26T09:14:17;1.80;99.90
2327;DHT22;1174;51.588;7.328;2023-01-26T09:17:00;1.80;99.90
2327;DHT22;1174;51.588;7.328;2023-01-26T09:19:41;1.90;99.90
2327;DHT22;1174;51.588;7.328;2023-01-26T09:25:38;1.80;99.90
2327;DHT22;1174;51.588;7.328;2023-01-26T09:32:20;1.80;99.90
2327;DHT22;1174;51.588;7.328;2023-01-26T09:37:50;2.00;99.90
2327;DHT22;1174;51.588;7.328;2023-01-26T09:40:47;2.00;99.90
2327;DHT22;1174;51.588;7.328;2023-01-26T09:43:26;2.00;99.90
2327;DHT22;1174;51.588;7.328;2023-01-26T09:46:14;2.10;99.90
2327;DHT22;1174;51.588;7.328;2023-01-26T09:49:41;2.10;99.90
2327;DHT22;1174;51.588;7.328;2023-01-26T09:52:13;2.30;99.90
2327;DHT22;1174;51.588;7.328;2023-01-26T09:55:18;2.30;99.90
2327;DHT22;1174;51.588;7.328;2023-01-26T10:32:16;2.10;99.90
2327;DHT22;1174;51.588;7.328;2023-01-26T10:38:53;2.30;99.90
2327;DHT22;1174;51.588;7.328;2023-01-26T10:43:11;2.30;99.90
2327;DHT22;1174;51.588;7.328;2023-01-26T10:45:42;2.30;99.90
2327;DHT22;1174;51.588;7.328;2023-01-26T10:58:58;2.30;99.90
2327;DHT22;1174;51.588;7.328;2023-01-26T11:02:29;2.30;99.90
2327;DHT22;1174;51.588;7.328;2023-01-26T11:13:05;2.40;99.90
2327;DHT22;1174;51.588;7.328;2023-01-26T11:16:07;2.30;99.90
2327;DHT22;1174;51.588;7.328;2023-01-26T11:18:52;2.30;99.90
2327;DHT22;1174;51.588;7.328;2023-01-26T11:21:41;2.40;99.90
2327;DHT22;1174;51.588;7.328;2023-01-26T11:24:33;2.50;99.90
2327;DHT22;1174;51.588;7.328;2023-01-26T11:30:51;2.70;99.90
2327;DHT22;1174;51.588;7.328;2023-01-26T11:36:28;2.60;99.90
2327;DHT22;1174;51.588;7.328;2023-01-26T11:39:23;2.60;99.90
2327;DHT22;1174;51.588;7.328;2023-01-26T11:42:48;2.70;99.90
2327;DHT22;1174;51.588;7.328;2023-01-26T11:45:18;2.70;99.90
2327;DHT22;1174;51.588;7.328;2023-01-26T11:48:12;2.80;99.90
2327;DHT22;1174;51.588;7.328;2023-01-26T11:50:46;2.80;99.90
2327;DHT22;1174;51.588;7.328;2023-01-26T11:53:35;2.60;99.90
2327;DHT22;1174;51.588;7.328;2023-01-26T11:56:32;2.50;99.90
2327;DHT22;1174;51.588;7.328;2023-01-26T11:59:08;2.50;99.90
2327;DHT22;1174;51.588;7.328;2023-01-26T12:01:57;2.60;99.90
2327;DHT22;1174;51.588;7.328;2023-01-26T12:04:32;2.50;99.90
2327;DHT22;1174;51.588;7.328;2023-01-26T12:07:09;2.50;99.90
2327;DHT22;1174;51.588;7.328;2023-01-26T12:10:04;2.40;99.90
2327;DHT22;1174;51.588;7.328;2023-01-26T12:15:52;2.50;99.90
2327;DHT22;1174;51.588;7.328;2023-01-26T12:18:23;2.60;99.90
2327;DHT22;1174;51.588;7.328;2023-01-26T12:20:54;2.50;99.90
2327;DHT22;1174;51.588;7.328;2023-01-26T12:23:32;2.60;99.90
2327;DHT22;1174;51.588;7.328;2023-01-26T12:26:09;2.50;99.90
2327;DHT22;1174;51.588;7.328;2023-01-26T12:30:07;2.70;99.90
2327;DHT22;1174;51.588;7.328;2023-01-26T12:32:11;2.50;99.90
2327;DHT22;1174;51.588;7.328;2023-01-26T12:34:59;2.50;99.90
2327;DHT22;1174;51.588;7.328;2023-01-26T12:41:29;2.50;99.90
2327;DHT22;1174;51.588;7.328;2023-01-26T12:44:09;2.50;99.90
2327;DHT22;1174;51.588;7.328;2023-01-26T12:46:43;2.60;99.90
2327;DHT22;1174;51.588;7.328;2023-01-26T12:52:22;2.80;99.90
2327;DHT22;1174;51.588;7.328;2023-01-26T12:55:14;2.70;99.90
2327;DHT22;1174;51.588;7.328;2023-01-26T12:57:57;2.80;99.90
2327;DHT22;1174;51.588;7.328;2023-01-26T13:00:38;2.90;99.90
2327;DHT22;1174;51.588;7.328;2023-01-26T13:03:51;3.10;99.90
2327;DHT22;1174;51.588;7.328;2023-01-26T13:06:32;3.00;99.90
2327;DHT22;1174;51.588;7.328;2023-01-26T13:25:33;2.70;99.90
2327;DHT22;1174;51.588;7.328;2023-01-26T13:28:36;2.70;99.90
2327;DHT22;1174;51.588;7.328;2023-01-26T13:34:52;2.90;99.90
2327;DHT22;1174;51.588;7.328;2023-01-26T13:37:32;3.00;99.90
2327;DHT22;1174;51.588;7.328;2023-01-26T13:42:54;3.00;99.90
2327;DHT22;1174;51.588;7.328;2023-01-26T13:45:39;3.00;99.90
2327;DHT22;1174;51.588;7.328;2023-01-26T13:48:17;3.10;99.90
2327;DHT22;1174;51.588;7.328;2023-01-26T13:51:01;3.10;99.90
2327;DHT22;1174;51.588;7.328;2023-01-26T13:53:35;3.10;99.90
2327;DHT22;1174;51.588;7.328;2023-01-26T13:56:26;3.10;99.90
2327;DHT22;1174;51.588;7.328;2023-01-26T13:59:18;3.20;99.90
2327;DHT22;1174;51.588;7.328;2023-01-26T14:02:10;3.10;99.90
2327;DHT22;1174;51.588;7.328;2023-01-26T14:04:50;3.20;99.90
2327;DHT22;1174;51.588;7.328;2023-01-26T14:07:34;3.10;99.90
2327;DHT22;1174;51.588;7.328;2023-01-26T14:10:23;3.10;99.90
2327;DHT22;1174;51.588;7.328;2023-01-26T14:12:58;3.20;99.90
2327;DHT22;1174;51.588;7.328;2023-01-26T14:15:30;3.20;99.90
2327;DHT22;1174;51.588;7.328;2023-01-26T14:18:18;3.20;99.90
2327;DHT22;1174;51.588;7.328;2023-01-26T14:20:58;3.20;99.90
2327;DHT22;1174;51.588;7.328;2023-01-26T14:23:39;3.20;99.90
2327;DHT22;1174;51.588;7.328;2023-01-26T14:26:31;3.30;99.90
2327;DHT22;1174;51.588;7.328;2023-01-26T14:29:00;3.30;99.90
2327;DHT22;1174;51.588;7.328;2023-01-26T14:31:37;3.50;99.90
2327;DHT22;1174;51.588;7.328;2023-01-26T14:34:22;3.40;99.90
2327;DHT22;1174;51.588;7.328;2023-01-26T14:37:10;3.60;99.90
2327;DHT22;1174;51.588;7.328;2023-01-26T14:40:13;3.70;99.90
2327;DHT22;1174;51.588;7.328;2023-01-26T14:43:07;3.80;99.90
2327;DHT22;1174;51.588;7.328;2023-01-26T14:45:50;3.70;99.90
2327;DHT22;1174;51.588;7.328;2023-01-26T14:48:26;3.80;99.90
2327;DHT22;1174;51.588;7.328;2023-01-26T14:50:57;3.90;99.90
2327;DHT22;1174;51.588;7.328;2023-01-26T14:53:31;3.90;99.90
2327;DHT22;1174;51.588;7.328;2023-01-26T14:56:17;4.10;99.90
2327;DHT22;1174;51.588;7.328;2023-01-26T14:59:06;3.90;99.90
2327;DHT22;1174;51.588;7.328;2023-01-26T15:01:39;4.00;99.90
2327;DHT22;1174;51.588;7.328;2023-01-26T15:04:27;4.00;99.90
2327;DHT22;1174;51.588;7.328;2023-01-26T15:08:16;4.00;99.90
2327;DHT22;1174;51.588;7.328;2023-01-26T15:10:57;3.90;99.90
2327;DHT22;1174;51.588;7.328;2023-01-26T15:13:41;4.00;99.90
2327;DHT22;1174;51.588;7.328;2023-01-26T15:16:52;4.10;99.90
2327;DHT22;1174;51.588;7.328;2023-01-26T15:19:24;4.00;99.90
2327;DHT22;1174;51.588;7.328;2023-01-26T15:22:11;4.10;99.90
2327;DHT22;1174;51.588;7.328;2023-01-26T15:25:04;4.20;99.90
2327;DHT22;1174;51.588;7.328;2023-01-26T15:27:49;4.10;99.90
2327;DHT22;1174;51.588;7.328;2023-01-26T15:30:36;4.00;99.90
2327;DHT22;1174;51.588;7.328;2023-01-26T15:36:52;4.40;99.90
2327;DHT22;1174;51.588;7.328;2023-01-26T15:39:19;4.30;99.90
2327;DHT22;1174;51.588;7.328;2023-01-26T15:42:09;4.20;99.90
2327;DHT22;1174;51.588;7.328;2023-01-26T15:44:38;4.20;99.90
2327;DHT22;1174;51.588;7.328;2023-01-26T15:47:21;4.30;99.90
2327;DHT22;1174;51.588;7.328;2023-01-26T15:50:07;4.20;99.90
2327;DHT22;1174;51.588;7.328;2023-01-26T15:56:02;4.20;99.90
2327;DHT22;1174;51.588;7.328;2023-01-26T15:58:33;4.20;99.90
2327;DHT22;1174;51.588;7.328;2023-01-26T16:01:01;4.20;99.90
2327;DHT22;1174;51.588;7.328;2023-01-26T16:03:30;4.30;99.90
2327;DHT22;1174;51.588;7.328;2023-01-26T16:06:00;4.30;99.90
2327;DHT22;1174;51.588;7.328;2023-01-26T16:08:31;4.30;99.90
2327;DHT22;1174;51.588;7.328;2023-01-26T16:10:59;4.20;99.90
2327;DHT22;1174;51.588;7.328;2023-01-26T16:13:28;4.20;99.90
2327;DHT22;1174;51.588;7.328;2023-01-26T16:16:04;4.10;99.90
2327;DHT22;1174;51.588;7.328;2023-01-26T16:18:43;4.10;99.90
2327;DHT22;1174;51.588;7.328;2023-01-26T16:21:32;4.20;99.90
2327;DHT22;1174;51.588;7.328;2023-01-26T16:24:09;4.10;99.90
2327;DHT22;1174;51.588;7.328;2023-01-26T16:26:50;4.30;99.90
2327;DHT22;1174;51.588;7.328;2023-01-26T16:29:49;4.30;99.90
2327;DHT22;1174;51.588;7.328;2023-01-26T16:32:26;4.20;99.90
2327;DHT22;1174;51.588;7.328;2023-01-26T16:35:01;4.20;99.90
2327;DHT22;1174;51.588;7.328;2023-01-26T16:37:33;4.30;99.90
2327;DHT22;1174;51.588;7.328;2023-01-26T16:40:10;4.30;99.90
2327;DHT22;1174;51.588;7.328;2023-01-26T16:42:40;4.30;99.90
2327;DHT22;1174;51.588;7.328;2023-01-26T16:45:33;4.30;99.90
2327;DHT22;1174;51.588;7.328;2023-01-26T16:48:44;4.30;99.90
2327;DHT22;1174;51.588;7.328;2023-01-26T16:51:19;4.30;99.90
2327;DHT22;1174;51.588;7.328;2023-01-26T16:53:50;4.50;99.90
2327;DHT22;1174;51.588;7.328;2023-01-26T16:57:42;4.50;99.90
2327;DHT22;1174;51.588;7.328;2023-01-26T17:00:00;4.40;99.90
2327;DHT22;1174;51.588;7.328;2023-01-26T17:02:43;4.50;99.90
2327;DHT22;1174;51.588;7.328;2023-01-26T17:05:48;4.50;99.90
2327;DHT22;1174;51.588;7.328;2023-01-26T17:08:23;4.40;99.90
2327;DHT22;1174;51.588;7.328;2023-01-26T17:10:59;4.40;99.90
2327;DHT22;1174;51.588;7.328;2023-01-26T17:13:47;4.30;99.90
2327;DHT22;1174;51.588;7.328;2023-01-26T17:16:42;4.30;99.90
2327;DHT22;1174;51.588;7.328;2023-01-26T17:19:24;4.30;99.90
2327;DHT22;1174;51.588;7.328;2023-01-26T17:25:42;4.60;99.90
2327;DHT22;1174;51.588;7.328;2023-01-26T17:28:54;4.70;99.90
2327;DHT22;1174;51.588;7.328;2023-01-26T17:31:35;4.60;99.90
2327;DHT22;1174;51.588;7.328;2023-01-26T17:34:04;4.60;99.90
2327;DHT22;1174;51.588;7.328;2023-01-26T17:36:59;4.50;99.90
2327;DHT22;1174;51.588;7.328;2023-01-26T17:39:48;4.50;99.90
2327;DHT22;1174;51.588;7.328;2023-01-26T17:42:18;4.40;99.90
2327;DHT22;1174;51.588;7.328;2023-01-26T17:45:05;4.50;99.90
2327;DHT22;1174;51.588;7.328;2023-01-26T17:47:37;4.50;99.90
2327;DHT22;1174;51.588;7.328;2023-01-26T17:50:38;4.50;99.90
2327;DHT22;1174;51.588;7.328;2023-01-26T17:53:20;4.50;99.90
2327;DHT22;1174;51.588;7.328;2023-01-26T17:56:27;4.60;99.90
2327;DHT22;1174;51.588;7.328;2023-01-26T17:58:54;4.50;99.90
2327;DHT22;1174;51.588;7.328;2023-01-26T18:01:58;4.40;99.90
2327;DHT22;1174;51.588;7.328;2023-01-26T18:04:30;4.50;99.90
2327;DHT22;1174;51.588;7.328;2023-01-26T18:07:07;4.50;99.90
2327;DHT22;1174;51.588;7.328;2023-01-26T18:16:04;4.50;99.90
2327;DHT22;1174;51.588;7.328;2023-01-26T18:18:35;4.50;99.90
2327;DHT22;1174;51.588;7.328;2023-01-26T18:21:13;4.50;99.90
2327;DHT22;1174;51.588;7.328;2023-01-26T18:23:47;4.60;99.90
2327;DHT22;1174;51.588;7.328;2023-01-26T18:26:17;4.60;99.90
2327;DHT22;1174;51.588;7.328;2023-01-26T18:28:48;4.50;99.90
2327;DHT22;1174;51.588;7.328;2023-01-26T18:31:19;4.40;99.90
2327;DHT22;1174;51.588;7.328;2023-01-26T18:33:46;4.40;99.90
2327;DHT22;1174;51.588;7.328;2023-01-26T18:36:16;4.40;99.90
2327;DHT22;1174;51.588;7.328;2023-01-26T18:38:49;4.40;99.90
2327;DHT22;1174;51.588;7.328;2023-01-26T18:41:27;4.50;99.90
2327;DHT22;1174;51.588;7.328;2023-01-26T18:44:00;4.50;99.90
2327;DHT22;1174;51.588;7.328;2023-01-26T18:46:35;4.50;99.90
2327;DHT22;1174;51.588;7.328;2023-01-26T18:49:11;4.50;99.90
2327;DHT22;1174;51.588;7.328;2023-01-26T18:51:49;4.60;99.90
2327;DHT22;1174;51.588;7.328;2023-01-26T18:54:17;4.60;99.90
2327;DHT22;1174;51.588;7.328;2023-01-26T18:56:50;4.70;99.90
2327;DHT22;1174;51.588;7.328;2023-01-26T18:59:17;4.70;99.90
2327;DHT22;1174;51.588;7.328;2023-01-26T19:02:01;4.60;99.90
2327;DHT22;1174;51.588;7.328;2023-01-26T19:04:32;4.60;99.90
2327;DHT22;1174;51.588;7.328;2023-01-26T19:07:01;4.50;99.90
2327;DHT22;1174;51.588;7.328;2023-01-26T19:09:29;4.60;99.90
2327;DHT22;1174;51.588;7.328;2023-01-26T19:12:00;4.60;99.90
2327;DHT22;1174;51.588;7.328;2023-01-26T19:14:28;4.70;99.90
2327;DHT22;1174;51.588;7.328;2023-01-26T19:17:02;4.50;99.90
2327;DHT22;1174;51.588;7.328;2023-01-26T19:19:30;4.50;99.90
2327;DHT22;1174;51.588;7.328;2023-01-26T19:21:59;4.40;99.90
2327;DHT22;1174;51.588;7.328;2023-01-26T19:24:28;4.50;99.90
2327;DHT22;1174;51.588;7.328;2023-01-26T19:26:58;4.50;99.90
2327;DHT22;1174;51.588;7.328;2023-01-26T19:29:31;4.70;99.90
2327;DHT22;1174;51.588;7.328;2023-01-26T19:32:05;4.60;99.90
2327;DHT22;1174;51.588;7.328;2023-01-26T19:34:34;4.70;99.90
2327;DHT22;1174;51.588;7.328;2023-01-26T19:37:05;4.60;99.90
2327;DHT22;1174;51.588;7.328;2023-01-26T19:39:36;4.60;99.90
2327;DHT22;1174;51.588;7.328;2023-01-26T19:42:06;4.60;99.90
2327;DHT22;1174;51.588;7.328;2023-01-26T19:44:42;4.60;99.90
2327;DHT22;1174;51.588;7.328;2023-01-26T19:47:12;4.60;99.90
2327;DHT22;1174;51.588;7.328;2023-01-26T19:49:41;4.60;99.90
2327;DHT22;1174;51.588;7.328;2023-01-26T19:52:20;4.60;99.90
2327;DHT22;1174;51.588;7.328;2023-01-26T19:55:07;4.60;99.90
2327;DHT22;1174;51.588;7.328;2023-01-26T19:57:39;4.60;99.90
2327;DHT22;1174;51.588;7.328;2023-01-26T20:00:15;4.60;99.90
2327;DHT22;1174;51.588;7.328;2023-01-26T20:02:47;4.60;99.90
2327;DHT22;1174;51.588;7.328;2023-01-26T20:05:14;4.60;99.90
2327;DHT22;1174;51.588;7.328;2023-01-26T20:07:44;4.60;99.90
2327;DHT22;1174;51.588;7.328;2023-01-26T20:10:13;4.60;99.90
2327;DHT22;1174;51.588;7.328;2023-01-26T20:12:46;4.70;99.90
2327;DHT22;1174;51.588;7.328;2023-01-26T20:15:14;4.70;99.90
2327;DHT22;1174;51.588;7.328;2023-01-26T20:17:41;4.70;99.90
2327;DHT22;1174;51.588;7.328;2023-01-26T20:20:15;4.70;99.90
2327;DHT22;1174;51.588;7.328;2023-01-26T20:22:42;4.70;99.90
2327;DHT22;1174;51.588;7.328;2023-01-26T20:25:10;4.80;99.90
2327;DHT22;1174;51.588;7.328;2023-01-26T20:27:42;4.70;99.90
2327;DHT22;1174;51.588;7.328;2023-01-26T20:30:10;4.80;99.90
2327;DHT22;1174;51.588;7.328;2023-01-26T20:32:38;4.80;99.90
2327;DHT22;1174;51.588;7.328;2023-01-26T20:38:21;4.80;99.90
2327;DHT22;1174;51.588;7.328;2023-01-26T20:40:56;4.80;99.90
2327;DHT22;1174;51.588;7.328;2023-01-26T20:43:27;4.90;99.90
2327;DHT22;1174;51.588;7.328;2023-01-26T20:45:56;4.90;99.90
2327;DHT22;1174;51.588;7.328;2023-01-26T20:48:29;4.90;99.90
2327;DHT22;1174;51.588;7.328;2023-01-26T20:51:07;4.80;99.90
2327;DHT22;1174;51.588;7.328;2023-01-26T20:53:49;4.90;99.90
2327;DHT22;1174;51.588;7.328;2023-01-26T20:56:21;5.00;99.90
2327;DHT22;1174;51.588;7.328;2023-01-26T20:58:53;5.10;99.90
2327;DHT22;1174;51.588;7.328;2023-01-26T21:01:32;5.10;99.90
2327;DHT22;1174;51.588;7.328;2023-01-26T21:04:13;5.00;99.90
2327;DHT22;1174;51.588;7.328;2023-01-26T21:06:47;5.10;99.90
2327;DHT22;1174;51.588;7.328;2023-01-26T21:09:28;5.10;99.90
2327;DHT22;1174;51.588;7.328;2023-01-26T21:12:02;5.10;99.90
2327;DHT22;1174;51.588;7.328;2023-01-26T21:14:38;5.10;99.90
2327;DHT22;1174;51.588;7.328;2023-01-26T21:17:09;5.00;99.90
2327;DHT22;1174;51.588;7.328;2023-01-26T21:19:40;5.10;99.90
2327;DHT22;1174;51.588;7.328;2023-01-26T21:22:08;5.10;99.90
2327;DHT22;1174;51.588;7.328;2023-01-26T21:24:44;5.10;99.90
2327;DHT22;1174;51.588;7.328;2023-01-26T21:30:29;5.10;99.90
2327;DHT22;1174;51.588;7.328;2023-01-26T21:32:57;5.10;99.90
2327;DHT22;1174;51.588;7.328;2023-01-26T21:35:25;5.10;99.90
2327;DHT22;1174;51.588;7.328;2023-01-26T21:37:52;5.20;99.90
2327;DHT22;1174;51.588;7.328;2023-01-26T21:40:26;5.20;99.90
2327;DHT22;1174;51.588;7.328;2023-01-26T21:43:07;5.20;99.90
2327;DHT22;1174;51.588;7.328;2023-01-26T21:45:57;5.10;99.90
2327;DHT22;1174;51.588;7.328;2023-01-26T21:48:39;5.20;99.90
2327;DHT22;1174;51.588;7.328;2023-01-26T21:51:07;5.10;99.90
2327;DHT22;1174;51.588;7.328;2023-01-26T21:53:53;5.10;99.90
2327;DHT22;1174;51.588;7.328;2023-01-26T21:56:29;5.10;99.90
2327;DHT22;1174;51.588;7.328;2023-01-26T21:58:58;5.20;99.90
2327;DHT22;1174;51.588;7.328;2023-01-26T22:01:38;5.10;99.90
2327;DHT22;1174;51.588;7.328;2023-01-26T22:04:13;5.20;99.90
2327;DHT22;1174;51.588;7.328;2023-01-26T22:07:10;5.10;99.90
2327;DHT22;1174;51.588;7.328;2023-01-26T22:09:47;5.00;99.90
2327;DHT22;1174;51.588;7.328;2023-01-26T22:12:16;4.90;99.90
2327;DHT22;1174;51.588;7.328;2023-01-26T22:14:43;4.80;99.90
2327;DHT22;1174;51.588;7.328;2023-01-26T22:17:12;4.80;99.90
2327;DHT22;1174;51.588;7.328;2023-01-26T22:19:40;4.90;99.90
2327;DHT22;1174;51.588;7.328;2023-01-26T22:22:07;4.90;99.90
2327;DHT22;1174;51.588;7.328;2023-01-26T22:24:35;4.80;99.90
2327;DHT22;1174;51.588;7.328;2023-01-26T22:27:06;4.90;99.90
2327;DHT22;1174;51.588;7.328;2023-01-26T22:29:37;4.90;99.90
2327;DHT22;1174;51.588;7.328;2023-01-26T22:32:07;4.90;99.90
2327;DHT22;1174;51.588;7.328;2023-01-26T22:34:34;5.00;99.90
2327;DHT22;1174;51.588;7.328;2023-01-26T22:37:04;5.20;99.90
2327;DHT22;1174;51.588;7.328;2023-01-26T22:39:32;5.10;99.90
2327;DHT22;1174;51.588;7.328;2023-01-26T22:41:59;5.00;99.90
2327;DHT22;1174;51.588;7.328;2023-01-26T22:53:48;4.90;99.90
2327;DHT22;1174;51.588;7.328;2023-01-26T22:56:17;5.10;99.90
2327;DHT22;1174;51.588;7.328;2023-01-26T22:58:53;5.00;99.90
2327;DHT22;1174;51.588;7.328;2023-01-26T23:01:22;5.00;99.90
2327;DHT22;1174;51.588;7.328;2023-01-26T23:04:02;5.10;99.90
2327;DHT22;1174;51.588;7.328;2023-01-26T23:06:30;5.20;99.90
2327;DHT22;1174;51.588;7.328;2023-01-26T23:08:58;5.20;99.90
2327;DHT22;1174;51.588;7.328;2023-01-26T23:11:29;5.10;99.90
2327;DHT22;1174;51.588;7.328;2023-01-26T23:13:58;5.10;99.90
2327;DHT22;1174;51.588;7.328;2023-01-26T23:16:39;5.00;99.90
2327;DHT22;1174;51.588;7.328;2023-01-26T23:19:12;5.10;99.90
2327;DHT22;1174;51.588;7.328;2023-01-26T23:22:01;5.10;99.90
2327;DHT22;1174;51.588;7.328;2023-01-26T23:24:31;5.00;99.90
2327;DHT22;1174;51.588;7.328;2023-01-26T23:27:01;5.00;99.90
2327;DHT22;1174;51.588;7.328;2023-01-26T23:29:39;5.10;99.90
2327;DHT22;1174;51.588;7.328;2023-01-26T23:32:33;5.00;99.90
2327;DHT22;1174;51.588;7.328;2023-01-26T23:35:16;4.90;99.90
2327;DHT22;1174;51.588;7.328;2023-01-26T23:38:10;4.90;99.90
2327;DHT22;1174;51.588;7.328;2023-01-26T23:40:43;5.00;99.90
2327;DHT22;1174;51.588;7.328;2023-01-26T23:43:38;5.00;99.90
2327;DHT22;1174;51.588;7.328;2023-01-26T23:48:24;5.00;99.90
2327;DHT22;1174;51.588;7.328;2023-01-26T23:50:17;4.90;99.90
2327;DHT22;1174;51.588;7.328;2023-01-26T23:53:25;4.70;99.90
2327;DHT22;1174;51.588;7.328;2023-01-26T23:59:31;4.60;99.90
